Time;durP1;ratioP1;P1;durP2;ratioP2;P2;SDS_P1;SDS_P2;PMS_P1;PMS_P2;Temp;Humidity;BMP_temperature;BMP_pressure;BME280_temperature;BME280_humidity;BME280_pressure;Samples;Min_cycle;Max_cycle;Signal;HPM_P1;HPM_P2
2020/12/02 00:00:28;;;;;;;12.68;11.93;;;17.50;99.90;;;;;;4244970;33;20097;-94
2020/12/02 00:03:11;;;;;;;5.72;5.20;;;17.40;99.90;;;;;;4263535;33;20083;-94
2020/12/02 00:05:46;;;;;;;11.70;10.82;;;17.40;99.90;;;;;;4265484;33;20357;-96
2020/12/02 00:08:25;;;;;;;1.37;1.20;;;17.50;99.90;;;;;;4257349;33;20113;-96
2020/12/02 00:10:55;;;;;;;18.95;17.50;;;17.50;99.90;;;;;;4275235;33;20062;-95
2020/12/02 00:13:31;;;;;;;6.37;1.87;;;17.50;99.90;;;;;;4245963;33;20061;-94
2020/12/02 00:16:00;;;;;;;1.33;0.60;;;17.40;99.90;;;;;;4252617;33;20112;-95
2020/12/02 00:18:29;;;;;;;2.20;0.73;;;17.30;99.90;;;;;;4253860;33;20551;-96
2020/12/02 00:20:57;;;;;;;1.70;0.70;;;17.20;99.90;;;;;;4233931;33;20799;-96
2020/12/02 00:23:25;;;;;;;4.10;0.60;;;17.20;99.90;;;;;;4258529;33;20085;-95
2020/12/02 00:25:53;;;;;;;1.48;0.60;;;17.30;99.90;;;;;;4250120;33;20066;-96
2020/12/02 00:28:21;;;;;;;1.17;0.50;;;17.30;99.90;;;;;;4252512;33;20054;-96
2020/12/02 00:30:49;;;;;;;1.25;0.50;;;17.40;99.90;;;;;;4260956;33;20061;-96
2020/12/02 00:33:22;;;;;;;4.30;0.70;;;17.40;99.90;;;;;;4258294;33;20130;-95
2020/12/02 00:35:52;;;;;;;0.30;0.30;;;17.40;99.90;;;;;;4251326;33;20423;-95
2020/12/02 00:38:22;;;;;;;3.85;0.50;;;17.30;99.90;;;;;;4246830;33;20076;-95
2020/12/02 00:40:52;;;;;;;1.77;0.73;;;17.30;99.90;;;;;;4269234;33;20097;-95
2020/12/02 00:43:25;;;;;;;3.35;2.95;;;17.20;99.90;;;;;;4249785;33;20062;-96
2020/12/02 00:45:56;;;;;;;0.45;0.45;;;17.10;99.90;;;;;;4256485;33;20069;-95
2020/12/02 00:48:26;;;;;;;1.73;0.60;;;17.00;99.90;;;;;;4259481;33;20049;-96
2020/12/02 00:50:57;;;;;;;1.77;0.77;;;16.90;99.90;;;;;;4248332;33;20091;-95
2020/12/02 00:53:30;;;;;;;2.00;0.40;;;16.90;99.90;;;;;;4251284;33;20084;-96
2020/12/02 00:55:59;;;;;;;1.55;0.45;;;16.80;99.90;;;;;;4265090;33;20057;-96
2020/12/02 00:58:58;;;;;;;2.03;0.80;;;16.70;99.90;;;;;;4264701;33;20089;-96
2020/12/02 01:01:48;;;;;;;0.65;0.40;;;16.60;99.90;;;;;;4272474;33;20045;-95
2020/12/02 01:04:19;;;;;;;2.67;2.30;;;16.50;99.90;;;;;;4278905;33;21330;-95
2020/12/02 01:06:51;;;;;;;0.73;0.50;;;16.50;99.90;;;;;;4262137;33;20122;-94
2020/12/02 01:09:20;;;;;;;1.55;0.60;;;16.40;99.90;;;;;;4268456;33;20121;-95
2020/12/02 01:11:51;;;;;;;5.12;4.30;;;16.40;99.90;;;;;;4287336;33;20058;-95
2020/12/02 01:14:19;;;;;;;14.52;13.68;;;16.40;99.90;;;;;;4258304;33;20042;-96
2020/12/02 01:16:51;;;;;;;11.35;10.85;;;16.40;99.90;;;;;;4270450;33;20169;-95
2020/12/02 01:19:26;;;;;;;18.17;17.27;;;16.40;99.90;;;;;;4273499;33;20129;-96
2020/12/02 01:22:22;;;;;;;6.87;6.35;;;16.40;99.90;;;;;;4269798;33;20058;-96
2020/12/02 01:25:09;;;;;;;5.62;5.22;;;16.40;99.90;;;;;;4273531;33;20057;-94
2020/12/02 01:28:00;;;;;;;3.08;2.87;;;16.50;99.90;;;;;;4281914;33;20117;-96
2020/12/02 01:30:31;;;;;;;7.93;6.87;;;16.40;99.90;;;;;;4251299;33;20189;-96
2020/12/02 01:32:59;;;;;;;4.80;4.10;;;16.40;99.90;;;;;;4253058;33;20108;-96
2020/12/02 01:35:29;;;;;;;4.78;4.37;;;16.40;99.90;;;;;;4263512;33;20192;-95
2020/12/02 01:38:04;;;;;;;4.07;3.87;;;16.40;99.90;;;;;;4247366;33;20458;-96
2020/12/02 01:40:35;;;;;;;4.70;4.50;;;16.40;99.90;;;;;;4245278;33;20702;-96
2020/12/02 01:43:11;;;;;;;5.80;5.40;;;16.30;99.90;;;;;;4252822;33;20053;-96
2020/12/02 01:45:48;;;;;;;5.50;5.10;;;16.20;99.90;;;;;;4265792;33;20131;-95
2020/12/02 01:48:29;;;;;;;1.60;1.50;;;16.30;99.90;;;;;;4248618;33;20105;-96
2020/12/02 01:51:28;;;;;;;3.42;3.22;;;16.40;99.90;;;;;;4272547;33;20034;-96
2020/12/02 01:54:02;;;;;;;3.40;3.10;;;16.60;99.90;;;;;;4260591;33;20158;-96
2020/12/02 01:56:59;;;;;;;4.43;0.50;;;16.70;99.90;;;;;;4249911;33;20112;-96
2020/12/02 01:59:45;;;;;;;2.25;1.12;;;16.70;99.90;;;;;;4252947;33;20109;-96
2020/12/02 02:03:04;;;;;;;3.40;0.70;;;16.70;99.90;;;;;;4254304;33;20050;-96
2020/12/02 02:05:37;;;;;;;3.87;1.80;;;16.70;99.90;;;;;;4209810;34;20086;-95
2020/12/02 02:08:05;;;;;;;2.75;2.65;;;16.80;99.90;;;;;;4246321;33;20126;-95
2020/12/02 02:10:37;;;;;;;4.12;3.83;;;16.80;99.90;;;;;;4257873;33;20146;-96
2020/12/02 02:13:31;;;;;;;3.75;3.28;;;16.70;99.90;;;;;;4268647;33;20054;-95
2020/12/02 02:16:12;;;;;;;3.13;1.80;;;16.70;99.90;;;;;;4241278;33;20474;-96
2020/12/02 02:18:40;;;;;;;8.55;7.80;;;16.70;99.90;;;;;;4244437;33;20254;-95
2020/12/02 02:21:28;;;;;;;1.35;1.35;;;16.70;99.90;;;;;;4269589;33;20115;-95
2020/12/02 02:23:56;;;;;;;1.37;0.45;;;16.80;99.90;;;;;;4269659;33;20121;-96
2020/12/02 02:26:31;;;;;;;4.53;4.22;;;16.80;99.90;;;;;;4245267;33;20113;-95
2020/12/02 02:29:27;;;;;;;5.90;1.17;;;16.70;99.90;;;;;;4251300;33;20766;-95
2020/12/02 02:32:14;;;;;;;1.40;0.70;;;16.70;99.90;;;;;;4257760;33;20195;-96
2020/12/02 02:34:50;;;;;;;1.00;0.30;;;16.60;99.90;;;;;;4258382;33;20049;-95
2020/12/02 02:37:22;;;;;;;2.28;0.50;;;16.50;99.90;;;;;;4259234;33;20101;-96
2020/12/02 02:39:50;;;;;;;3.05;1.20;;;16.40;99.90;;;;;;4253813;33;20049;-96
2020/12/02 02:42:35;;;;;;;6.25;5.85;;;16.40;99.90;;;;;;4266125;33;20088;-96
2020/12/02 02:45:16;;;;;;;1.25;1.08;;;16.30;99.90;;;;;;4250604;33;20432;-96
2020/12/02 02:47:45;;;;;;;0.40;0.40;;;16.30;99.90;;;;;;4254326;33;21162;-96
2020/12/02 02:50:17;;;;;;;2.67;2.47;;;16.20;99.90;;;;;;4245979;33;20110;-96
2020/12/02 02:52:46;;;;;;;10.55;9.77;;;16.30;99.90;;;;;;4257092;33;20061;-94
2020/12/02 02:55:24;;;;;;;15.00;14.27;;;16.20;99.90;;;;;;4253894;33;20110;-95
2020/12/02 02:57:58;;;;;;;13.30;12.50;;;16.30;99.90;;;;;;4274283;33;20073;-95
2020/12/02 03:00:30;;;;;;;11.55;10.80;;;16.30;99.90;;;;;;4251669;33;20076;-96
2020/12/02 03:02:59;;;;;;;9.25;8.65;;;16.40;99.90;;;;;;4249902;33;20456;-94
2020/12/02 03:05:28;;;;;;;10.35;9.65;;;16.50;99.90;;;;;;4244118;33;20116;-94
2020/12/02 03:08:02;;;;;;;6.25;5.93;;;16.50;99.90;;;;;;4261791;33;20377;-94
2020/12/02 03:10:32;;;;;;;;;;;16.60;99.90;;;;;;4270474;33;20093;-96
2020/12/02 03:13:06;;;;;;;6.15;5.82;;;16.70;99.90;;;;;;4252182;33;19945;-94
2020/12/02 03:15:35;;;;;;;;;;;16.40;99.90;;;;;;4258829;33;20145;-96
2020/12/02 03:18:03;;;;;;;8.02;7.53;;;16.40;99.90;;;;;;4252686;33;20554;-92
2020/12/02 03:20:37;;;;;;;7.43;6.97;;;16.40;99.90;;;;;;4252058;33;20097;-94
2020/12/02 03:23:11;;;;;;;4.62;4.28;;;16.40;99.90;;;;;;4255767;33;20433;-93
2020/12/02 03:25:39;;;;;;;2.65;2.55;;;16.40;99.90;;;;;;4263063;33;20050;-94
2020/12/02 03:28:08;;;;;;;3.58;3.28;;;16.50;99.90;;;;;;4261007;33;20093;-94
2020/12/02 03:30:37;;;;;;;3.95;3.75;;;16.50;99.90;;;;;;4243855;33;20054;-94
2020/12/02 03:33:10;;;;;;;12.00;11.40;;;16.70;99.90;;;;;;4256464;33;20112;-94
2020/12/02 03:35:39;;;;;;;19.42;18.52;;;16.50;99.90;;;;;;4242605;33;20069;-93
2020/12/02 03:38:07;;;;;;;18.35;17.55;;;16.50;99.90;;;;;;4250233;33;20114;-93
2020/12/02 03:40:36;;;;;;;17.45;16.65;;;16.50;99.90;;;;;;4252137;33;20097;-93
2020/12/02 03:43:04;;;;;;;17.10;15.88;;;16.60;99.90;;;;;;4272052;33;20133;-94
2020/12/02 03:45:34;;;;;;;18.35;17.37;;;16.60;99.90;;;;;;4257490;33;20140;-93
2020/12/02 03:48:04;;;;;;;20.30;19.00;;;16.60;99.90;;;;;;4287147;33;20030;-91
2020/12/02 03:50:33;;;;;;;5.87;1.10;;;16.70;99.90;;;;;;4260155;33;20084;-94
2020/12/02 03:53:01;;;;;;;0.75;0.57;;;16.70;99.90;;;;;;4264410;33;20050;-95
2020/12/02 03:55:29;;;;;;;9.32;8.73;;;16.70;99.90;;;;;;4269212;33;20055;-93
2020/12/02 03:57:57;;;;;;;2.37;0.45;;;16.70;99.90;;;;;;4254447;33;20481;-95
2020/12/02 04:00:25;;;;;;;1.58;0.60;;;16.70;99.90;;;;;;4254734;33;20081;-93
2020/12/02 04:02:54;;;;;;;4.22;0.88;;;16.70;99.90;;;;;;4267716;33;20121;-94
2020/12/02 04:05:22;;;;;;;3.70;0.60;;;16.60;99.90;;;;;;4259684;33;20635;-94
2020/12/02 04:07:50;;;;;;;2.85;0.60;;;16.50;99.90;;;;;;4246797;33;20513;-93
2020/12/02 04:10:18;;;;;;;0.88;0.50;;;16.50;99.90;;;;;;4238689;33;20164;-93
2020/12/02 04:12:47;;;;;;;2.25;0.62;;;16.40;99.90;;;;;;4259259;33;20082;-93
2020/12/02 04:15:16;;;;;;;1.50;0.60;;;16.70;99.90;;;;;;4246039;33;20200;-93
2020/12/02 04:17:45;;;;;;;4.03;0.45;;;16.50;99.90;;;;;;4262556;33;20109;-95
2020/12/02 04:20:17;;;;;;;0.65;0.60;;;16.30;99.90;;;;;;4245243;33;20518;-94
2020/12/02 04:22:47;;;;;;;1.85;0.75;;;16.30;99.90;;;;;;4255299;33;20598;-95
2020/12/02 04:25:16;;;;;;;4.15;0.52;;;16.30;99.90;;;;;;4255543;33;20071;-94
2020/12/02 04:27:45;;;;;;;5.62;0.60;;;16.30;99.90;;;;;;4259308;33;20061;-95
2020/12/02 04:30:14;;;;;;;0.55;0.55;;;16.40;99.90;;;;;;4267804;33;20424;-95
2020/12/02 04:32:42;;;;;;;1.75;0.50;;;16.30;99.90;;;;;;4250319;33;20169;-95
2020/12/02 04:35:10;;;;;;;1.52;0.50;;;16.40;99.90;;;;;;4269348;33;20075;-94
2020/12/02 04:37:39;;;;;;;0.30;0.30;;;16.40;99.90;;;;;;4260923;33;20104;-95
2020/12/02 04:40:11;;;;;;;3.30;0.70;;;16.40;99.90;;;;;;4255313;33;20062;-95
2020/12/02 04:42:45;;;;;;;13.15;12.45;;;16.40;99.90;;;;;;4269996;33;20081;-95
2020/12/02 04:45:15;;;;;;;1.23;1.12;;;16.40;99.90;;;;;;4266816;33;20121;-94
2020/12/02 04:47:44;;;;;;;1.33;1.30;;;16.40;99.90;;;;;;4255470;33;20463;-94
2020/12/02 04:50:24;;;;;;;2.97;2.20;;;16.30;99.90;;;;;;4253532;33;20058;-93
2020/12/02 04:53:11;;;;;;;1.67;1.58;;;16.40;99.90;;;;;;4260183;33;20080;-94
2020/12/02 04:55:41;;;;;;;1.85;1.73;;;16.40;99.90;;;;;;4242019;33;20057;-94
2020/12/02 04:58:27;;;;;;;1.70;1.60;;;16.40;99.90;;;;;;4256781;33;20061;-95
2020/12/02 05:01:41;;;;;;;4.32;1.60;;;16.50;99.90;;;;;;4246633;33;20058;-94
2020/12/02 05:04:19;;;;;;;;;;;16.50;99.90;;;;;;4253617;33;20074;-95
2020/12/02 05:06:50;;;;;;;4.70;4.37;;;16.50;99.90;;;;;;4251723;33;19948;-93
2020/12/02 05:09:26;;;;;;;3.35;3.12;;;16.60;99.90;;;;;;4249984;33;20061;-94
2020/12/02 05:12:13;;;;;;;18.12;17.23;;;16.50;99.90;;;;;;4246098;33;20156;-94
2020/12/02 05:14:46;;;;;;;9.88;9.38;;;16.60;99.90;;;;;;4247782;33;20110;-95
2020/12/02 05:17:25;;;;;;;10.70;10.30;;;16.70;99.90;;;;;;4271934;33;20097;-95
2020/12/02 05:20:13;;;;;;;0.65;0.55;;;16.70;99.90;;;;;;4249175;33;20077;-96
2020/12/02 05:22:50;;;;;;;2.58;0.60;;;16.60;99.90;;;;;;4261473;33;20057;-94
2020/12/02 05:25:30;;;;;;;14.65;13.90;;;16.60;99.90;;;;;;4248268;33;20407;-95
2020/12/02 05:28:20;;;;;;;1.48;0.45;;;16.60;99.90;;;;;;4248381;33;20439;-96
2020/12/02 05:30:49;;;;;;;7.70;0.90;;;16.60;99.90;;;;;;4258724;33;20550;-95
2020/12/02 05:33:19;;;;;;;0.65;0.45;;;16.60;99.90;;;;;;4247986;33;20092;-96
2020/12/02 05:36:02;;;;;;;2.20;0.80;;;16.60;99.90;;;;;;4259410;33;20058;-95
2020/12/02 05:38:49;;;;;;;0.60;0.60;;;16.80;99.90;;;;;;4248331;33;20444;-95
2020/12/02 05:41:18;;;;;;;32.00;30.40;;;17.00;99.90;;;;;;4258533;33;20113;-95
2020/12/02 05:44:02;;;;;;;9.70;9.13;;;16.80;99.90;;;;;;4248595;33;20149;-95
2020/12/02 05:46:44;;;;;;;7.68;7.28;;;16.90;99.90;;;;;;4238707;33;20054;-93
2020/12/02 05:49:23;;;;;;;6.57;6.25;;;16.60;99.90;;;;;;4245880;33;20062;-95
2020/12/02 05:51:51;;;;;;;5.40;5.20;;;16.60;99.90;;;;;;4245818;33;20065;-96
2020/12/02 05:54:22;;;;;;;7.97;7.30;;;16.60;99.90;;;;;;4248418;33;20822;-96
2020/12/02 05:56:52;;;;;;;5.22;4.75;;;16.60;99.90;;;;;;4248357;33;20161;-95
2020/12/02 05:59:24;;;;;;;3.87;3.05;;;16.60;99.90;;;;;;4250372;33;20088;-96
2020/12/02 06:01:57;;;;;;;4.20;4.00;;;16.80;99.90;;;;;;4257864;33;20069;-95
2020/12/02 06:04:26;;;;;;;3.80;3.60;;;16.70;99.90;;;;;;4244764;33;20133;-95
2020/12/02 06:06:56;;;;;;;4.82;4.43;;;16.70;99.90;;;;;;4259275;33;20099;-96
2020/12/02 06:09:52;;;;;;;9.05;0.93;;;16.70;99.90;;;;;;4270438;33;20074;-96
2020/12/02 06:12:23;;;;;;;5.68;0.55;;;16.70;99.90;;;;;;4252972;33;20375;-94
2020/12/02 06:14:51;;;;;;;4.55;0.70;;;16.70;99.90;;;;;;4259000;33;20117;-95
2020/12/02 06:17:31;;;;;;;1.50;0.80;;;16.90;99.90;;;;;;4272991;33;20085;-94
2020/12/02 06:19:59;;;;;;;0.80;0.60;;;16.70;99.90;;;;;;4255851;33;20072;-95
2020/12/02 06:22:40;;;;;;;3.03;0.90;;;16.70;99.90;;;;;;4245039;33;20157;-93
2020/12/02 06:25:46;;;;;;;4.28;0.70;;;16.80;99.90;;;;;;4274607;33;20212;-94
2020/12/02 06:28:30;;;;;;;3.35;2.35;;;16.70;99.90;;;;;;4250837;33;20109;-94
2020/12/02 06:31:06;;;;;;;22.87;21.52;;;16.80;99.90;;;;;;4255582;33;20106;-95
2020/12/02 06:33:37;;;;;;;0.60;0.60;;;16.90;99.90;;;;;;4255727;33;20101;-93
2020/12/02 06:36:31;;;;;;;8.60;1.05;;;16.90;99.90;;;;;;4262285;33;20087;-92
2020/12/02 06:39:27;;;;;;;1.77;0.80;;;17.10;99.90;;;;;;4247430;33;20054;-95
2020/12/02 06:41:55;;;;;;;2.90;0.70;;;17.10;99.90;;;;;;4238211;33;20109;-94
2020/12/02 06:44:58;;;;;;;1.83;0.68;;;17.10;99.90;;;;;;4253506;33;20057;-95
2020/12/02 06:47:28;;;;;;;3.35;1.02;;;17.10;99.90;;;;;;4262670;33;20077;-92
2020/12/02 06:50:02;;;;;;;4.30;4.07;;;17.00;99.90;;;;;;4255495;33;20059;-95
2020/12/02 06:52:39;;;;;;;13.13;12.25;;;16.90;99.90;;;;;;4244460;33;20132;-95
2020/12/02 06:55:21;;;;;;;6.00;5.62;;;17.20;99.90;;;;;;4265506;33;20083;-93
2020/12/02 06:58:04;;;;;;;1.35;0.55;;;17.00;99.90;;;;;;4241147;33;20519;-93
2020/12/02 07:00:54;;;;;;;3.20;0.70;;;17.00;99.90;;;;;;4255871;33;20160;-95
2020/12/02 07:03:40;;;;;;;2.80;0.57;;;17.00;99.90;;;;;;4258444;33;20073;-94
2020/12/02 07:06:24;;;;;;;2.80;1.08;;;16.90;99.90;;;;;;4239471;33;20176;-94
2020/12/02 07:09:10;;;;;;;5.00;0.65;;;16.90;99.90;;;;;;4256108;33;20061;-94
2020/12/02 07:11:54;;;;;;;5.22;1.02;;;16.80;99.90;;;;;;4253721;33;20146;-96
2020/12/02 07:14:35;;;;;;;1.87;0.47;;;16.90;99.90;;;;;;4243454;33;20426;-95
2020/12/02 07:17:07;;;;;;;4.05;1.37;;;16.90;99.90;;;;;;4267148;33;20066;-95
2020/12/02 07:19:42;;;;;;;0.75;0.50;;;17.10;99.90;;;;;;4257867;33;20069;-95
2020/12/02 07:22:18;;;;;;;1.83;0.65;;;17.10;99.90;;;;;;4268796;33;20113;-94
2020/12/02 07:24:50;;;;;;;19.35;18.42;;;17.10;99.90;;;;;;4237418;33;20208;-94
2020/12/02 07:27:21;;;;;;;5.00;4.60;;;17.20;99.90;;;;;;4249822;33;20534;-95
2020/12/02 07:30:01;;;;;;;11.70;11.00;;;17.20;99.90;;;;;;4269542;33;20057;-93
2020/12/02 07:32:29;;;;;;;7.55;6.65;;;17.20;99.90;;;;;;4251504;33;20132;-94
2020/12/02 07:35:06;;;;;;;22.83;21.52;;;17.20;99.90;;;;;;4266223;33;20119;-93
2020/12/02 07:37:34;;;;;;;17.98;16.80;;;17.20;99.90;;;;;;4248329;33;20486;-93
2020/12/02 07:40:05;;;;;;;30.80;29.25;;;17.30;99.90;;;;;;4262419;33;20076;-92
2020/12/02 07:42:41;;;;;;;19.52;18.50;;;17.30;99.90;;;;;;4270412;33;20767;-94
2020/12/02 07:45:15;;;;;;;2.85;0.60;;;17.50;99.90;;;;;;4262165;33;20084;-94
2020/12/02 07:48:10;;;;;;;2.03;0.82;;;17.80;99.90;;;;;;4268529;33;20108;-94
2020/12/02 07:50:52;;;;;;;5.18;1.02;;;18.20;99.90;;;;;;4252263;33;20108;-93
2020/12/02 07:53:54;;;;;;;3.25;1.62;;;18.80;99.90;;;;;;4258283;33;20053;-95
2020/12/02 07:56:29;;;;;;;4.30;4.00;;;19.50;99.90;;;;;;4261777;33;20093;-95
2020/12/02 07:59:04;;;;;;;8.23;7.60;;;;;;;;;;4267546;33;20126;-95
2020/12/02 08:01:35;;;;;;;2.97;0.90;;;;;;;;;;4258961;33;20150;-94
2020/12/02 08:04:24;;;;;;;2.65;0.70;;;;;;;;;;4251748;33;20084;-94
2020/12/02 08:07:10;;;;;;;2.35;1.37;;;22.40;99.90;;;;;;4261790;33;20057;-95
2020/12/02 08:09:42;;;;;;;9.95;9.07;;;22.70;99.90;;;;;;4264542;33;20097;-94
2020/12/02 08:12:31;;;;;;;5.03;1.20;;;23.20;99.90;;;;;;4255551;33;20133;-94
2020/12/02 08:15:06;;;;;;;1.85;1.48;;;23.70;99.90;;;;;;4267775;33;20481;-94
2020/12/02 08:17:34;;;;;;;5.43;2.10;;;24.30;99.90;;;;;;4263365;33;20046;-94
2020/12/02 08:20:24;;;;;;;3.25;3.10;;;24.80;99.90;;;;;;4253596;33;20578;-93
2020/12/02 08:22:55;;;;;;;3.37;3.15;;;25.20;99.90;;;;;;4266673;33;20053;-93
2020/12/02 08:25:35;;;;;;;0.77;0.70;;;25.50;99.90;;;;;;4261143;33;20089;-93
2020/12/02 08:28:10;;;;;;;1.65;1.10;;;23.00;99.90;;;;;;4263058;33;20097;-92
2020/12/02 08:30:38;;;;;;;1.95;1.85;;;22.80;99.90;;;;;;4265038;33;20101;-91
2020/12/02 08:33:10;;;;;;;2.83;1.15;;;24.00;99.90;;;;;;4270666;33;20080;-96
2020/12/02 08:35:41;;;;;;;1.50;1.40;;;23.40;99.90;;;;;;4267782;33;20069;-93
2020/12/02 08:38:27;;;;;;;2.03;0.70;;;24.70;99.90;;;;;;4269656;33;20053;-94
2020/12/02 08:40:57;;;;;;;1.75;0.62;;;;;;;;;;4268845;33;20057;-93
2020/12/02 08:43:36;;;;;;;0.93;0.60;;;22.70;99.90;;;;;;4259334;33;20118;-94
2020/12/02 08:46:14;;;;;;;2.42;0.60;;;22.00;99.90;;;;;;4252833;33;20116;-92
2020/12/02 08:48:43;;;;;;;1.62;0.90;;;21.70;99.90;;;;;;4260914;33;20049;-92
2020/12/02 08:51:19;;;;;;;3.10;0.88;;;21.30;99.90;;;;;;4250233;33;20057;-93
2020/12/02 08:53:48;;;;;;;3.72;0.70;;;21.10;99.90;;;;;;4241038;33;20091;-92
2020/12/02 08:56:37;;;;;;;1.48;0.60;;;20.90;99.90;;;;;;4261015;33;20451;-92
2020/12/02 08:59:09;;;;;;;1.02;0.80;;;20.90;99.90;;;;;;4277477;33;20062;-89
2020/12/02 09:01:38;;;;;;;1.27;0.93;;;21.00;99.90;;;;;;4279107;33;20053;-89
2020/12/02 09:04:07;;;;;;;1.45;1.27;;;21.10;99.90;;;;;;4284623;33;20037;-91
2020/12/02 09:06:35;;;;;;;17.90;16.90;;;23.20;99.90;;;;;;4243882;33;20125;-92
2020/12/02 09:09:07;;;;;;;24.73;23.62;;;;;;;;;;4248283;33;20084;-92
2020/12/02 09:11:38;;;;;;;22.00;21.00;;;28.70;99.90;;;;;;4279472;33;20456;-93
2020/12/02 09:14:07;;;;;;;19.00;17.98;;;30.40;98.50;;;;;;4264809;33;20102;-92
2020/12/02 09:16:36;;;;;;;20.48;19.42;;;;;;;;;;4259991;33;20050;-92
2020/12/02 09:19:09;;;;;;;26.65;25.40;;;32.50;91.30;;;;;;4236669;33;20588;-91
2020/12/02 09:21:41;;;;;;;25.88;24.65;;;32.30;90.00;;;;;;4247116;33;20127;-92
2020/12/02 09:24:09;;;;;;;24.92;23.73;;;;;;;;;;4260614;33;20153;-92
2020/12/02 09:26:38;;;;;;;28.60;26.98;;;34.70;82.10;;;;;;4262964;33;20050;-92
2020/12/02 09:29:12;;;;;;;19.27;18.30;;;34.70;81.10;;;;;;4254804;33;20065;-93
2020/12/02 09:31:41;;;;;;;19.90;18.90;;;35.00;77.00;;;;;;4266205;33;20097;-93
2020/12/02 09:34:10;;;;;;;21.42;20.42;;;33.70;77.50;;;;;;4254969;33;20069;-92
2020/12/02 09:36:38;;;;;;;26.45;25.15;;;33.60;78.10;;;;;;4262845;33;20168;-92
2020/12/02 09:39:07;;;;;;;22.62;21.52;;;34.00;77.50;;;;;;4256616;33;20064;-92
2020/12/02 09:41:52;;;;;;;19.12;18.23;;;34.60;75.20;;;;;;4266317;33;20380;-92
2020/12/02 09:44:34;;;;;;;21.90;20.90;;;34.90;72.60;;;;;;4266349;33;20058;-92
2020/12/02 09:47:10;;;;;;;25.20;24.08;;;34.50;72.30;;;;;;4271873;33;20125;-92
2020/12/02 09:49:39;;;;;;;21.55;20.58;;;;;;;;;;4257683;33;20148;-92
2020/12/02 09:52:08;;;;;;;17.05;16.15;;;37.00;67.60;;;;;;4245229;33;20381;-92
2020/12/02 09:54:41;;;;;;;24.17;23.08;;;37.10;66.40;;;;;;4254555;33;20085;-93
2020/12/02 09:57:15;;;;;;;20.00;18.90;;;37.50;65.90;;;;;;4249241;33;20068;-91
2020/12/02 09:59:43;;;;;;;23.58;22.48;;;36.90;62.60;;;;;;4260681;33;20165;-94
2020/12/02 10:02:33;;;;;;;27.90;26.65;;;;;;;;;;4249093;33;20070;-92
2020/12/02 10:05:14;;;;;;;26.73;25.52;;;38.40;60.00;;;;;;4261653;33;20046;-92
2020/12/02 10:08:09;;;;;;;29.48;27.95;;;38.50;59.00;;;;;;4269631;33;20058;-90
2020/12/02 10:10:58;;;;;;;4.32;4.05;;;37.70;59.40;;;;;;4249231;33;20131;-90
2020/12/02 10:13:49;;;;;;;14.05;13.30;;;36.70;59.70;;;;;;4260656;33;20380;-91
2020/12/02 10:16:51;;;;;;;11.77;11.25;;;37.20;58.60;;;;;;4262431;33;20097;-89
2020/12/02 10:19:41;;;;;;;1.05;0.40;;;34.10;65.40;;;;;;4246561;33;20068;-89
2020/12/02 10:22:25;;;;;;;1.02;0.80;;;32.70;66.40;;;;;;4260762;33;20530;-89
2020/12/02 10:25:17;;;;;;;2.62;0.98;;;31.50;68.80;;;;;;4258534;33;20794;-90
2020/12/02 10:28:21;;;;;;;5.40;5.12;;;30.50;73.40;;;;;;4261714;33;20053;-89
2020/12/02 10:31:07;;;;;;;7.87;7.53;;;;;;;;;;4238500;33;20952;-89
2020/12/02 10:33:42;;;;;;;12.70;11.70;;;34.90;93.60;;;;;;4258720;33;20130;-90
2020/12/02 10:36:10;;;;;;;17.17;16.23;;;;;;;;;;4248500;33;20066;-89
2020/12/02 10:38:50;;;;;;;1.08;0.60;;;36.90;61.40;;;;;;4259177;33;20123;-90
2020/12/02 10:42:08;;;;;;;1.70;1.45;;;35.20;61.60;;;;;;4259574;33;20136;-90
2020/12/02 10:45:04;;;;;;;2.25;0.50;;;32.30;73.00;;;;;;4220732;33;20778;-90
2020/12/02 10:47:51;;;;;;;1.02;0.40;;;;;;;;;;4201880;34;20401;-89
2020/12/02 10:50:24;;;;;;;2.58;0.60;;;26.10;96.80;;;;;;4250602;33;20097;-91
2020/12/02 10:52:55;;;;;;;0.93;0.60;;;25.70;97.30;;;;;;4237567;33;20396;-88
2020/12/02 10:55:30;;;;;;;1.35;0.50;;;24.90;99.90;;;;;;4259436;33;20057;-88
2020/12/02 10:58:01;;;;;;;2.22;0.40;;;24.50;99.90;;;;;;4245282;33;21647;-89
2020/12/02 11:00:31;;;;;;;1.08;0.57;;;;;;;;;;4258973;33;20512;-86
2020/12/02 11:03:20;;;;;;;0.55;0.55;;;23.90;99.90;;;;;;4264654;33;20516;-88
2020/12/02 11:06:13;;;;;;;1.37;0.45;;;23.60;99.90;;;;;;4258846;33;20097;-91
2020/12/02 11:09:35;;;;;;;1.00;0.40;;;23.40;99.90;;;;;;4264597;33;20105;-90
2020/12/02 11:12:40;;;;;;;0.77;0.68;;;23.10;99.90;;;;;;4223961;33;20107;-90
2020/12/02 11:15:08;;;;;;;2.92;0.50;;;22.90;99.90;;;;;;4210145;33;20156;-89
2020/12/02 11:18:02;;;;;;;1.27;0.50;;;22.80;99.90;;;;;;4267115;33;20065;-91
2020/12/02 11:20:46;;;;;;;1.15;0.40;;;22.90;99.90;;;;;;4266053;33;20108;-90
2020/12/02 11:23:48;;;;;;;3.05;1.23;;;23.20;99.90;;;;;;4269674;33;20070;-90
2020/12/02 11:26:30;;;;;;;2.30;0.55;;;23.40;99.90;;;;;;4253623;33;20062;-90
2020/12/02 11:29:01;;;;;;;2.92;0.45;;;23.80;99.90;;;;;;4259699;33;20077;-90
2020/12/02 11:32:03;;;;;;;5.53;0.80;;;24.30;99.80;;;;;;4261744;33;20095;-91
2020/12/02 11:35:08;;;;;;;2.75;0.93;;;24.80;99.40;;;;;;4271175;33;20089;-91
2020/12/02 11:38:00;;;;;;;4.93;0.70;;;25.20;98.80;;;;;;4279774;33;20057;-91
2020/12/02 11:40:56;;;;;;;2.15;0.80;;;25.60;98.40;;;;;;4263154;33;20148;-91
2020/12/02 11:43:26;;;;;;;1.75;1.15;;;26.00;98.40;;;;;;4282562;33;20076;-90
2020/12/02 11:45:57;;;;;;;8.55;7.87;;;;;;;;;;4269286;33;20104;-90
2020/12/02 11:48:26;;;;;;;5.95;5.65;;;31.10;91.00;;;;;;4265364;33;20045;-90
2020/12/02 11:51:17;;;;;;;3.40;1.00;;;31.70;90.30;;;;;;4263620;33;20050;-92
2020/12/02 11:53:45;;;;;;;1.25;0.60;;;31.40;85.00;;;;;;4260917;33;20102;-93
2020/12/02 11:56:27;;;;;;;1.65;0.55;;;29.60;87.30;;;;;;4264857;33;20077;-90
2020/12/02 11:59:13;;;;;;;2.28;0.60;;;27.90;93.60;;;;;;4264085;33;20411;-90
2020/12/02 12:01:51;;;;;;;2.83;0.80;;;26.10;97.30;;;;;;4265226;33;20202;-91
2020/12/02 12:04:27;;;;;;;2.72;0.70;;;;;;;;;;4266757;33;20069;-91
2020/12/02 12:07:01;;;;;;;2.17;0.70;;;23.80;99.90;;;;;;4263483;33;20076;-91
2020/12/02 12:09:33;;;;;;;4.65;0.85;;;23.40;99.90;;;;;;4258328;33;20452;-91
2020/12/02 12:12:32;;;;;;;3.87;0.90;;;23.60;99.90;;;;;;4257910;33;20109;-91
2020/12/02 12:15:21;;;;;;;4.37;0.70;;;24.00;99.90;;;;;;4247595;33;20049;-91
2020/12/02 12:17:54;;;;;;;1.80;0.77;;;23.80;99.90;;;;;;4262160;33;20098;-91
2020/12/02 12:20:27;;;;;;;2.80;0.75;;;20.90;99.90;;;;;;4272522;33;20077;-91
2020/12/02 12:23:33;;;;;;;3.03;0.90;;;22.30;99.90;;;;;;4267595;33;20053;-90
2020/12/02 12:26:01;;;;;;;4.82;0.77;;;21.90;99.90;;;;;;4240926;33;20153;-91
2020/12/02 12:28:30;;;;;;;3.50;0.88;;;21.70;99.90;;;;;;4268988;33;20093;-91
2020/12/02 12:31:03;;;;;;;1.37;0.65;;;21.70;99.90;;;;;;4262766;33;20125;-91
2020/12/02 12:33:37;;;;;;;3.03;0.90;;;21.70;99.90;;;;;;4260167;33;20093;-90
2020/12/02 12:36:22;;;;;;;3.25;1.08;;;21.80;99.90;;;;;;4264345;33;20045;-90
2020/12/02 12:39:15;;;;;;;8.60;1.83;;;21.80;99.90;;;;;;4261613;33;20061;-91
2020/12/02 12:41:48;;;;;;;4.05;1.10;;;21.90;99.90;;;;;;4260989;33;20068;-90
2020/12/02 12:44:29;;;;;;;2.85;0.93;;;21.80;99.90;;;;;;4242414;33;20566;-91
2020/12/02 12:47:17;;;;;;;4.65;0.80;;;21.50;99.90;;;;;;4250336;33;20361;-90
2020/12/02 12:49:47;;;;;;;2.45;0.93;;;21.50;99.90;;;;;;4263434;33;20050;-90
2020/12/02 12:52:18;;;;;;;3.12;0.73;;;21.50;99.90;;;;;;4245239;33;20121;-90
2020/12/02 12:54:48;;;;;;;4.62;0.90;;;;;;;;;;4266048;33;20110;-89
2020/12/02 12:57:20;;;;;;;5.25;0.90;;;21.20;99.90;;;;;;4251862;33;20062;-90
2020/12/02 12:59:51;;;;;;;3.12;0.98;;;21.20;99.90;;;;;;4266657;33;20091;-90
2020/12/02 13:02:25;;;;;;;4.00;0.93;;;21.20;99.90;;;;;;4253799;33;20090;-91
2020/12/02 13:04:54;;;;;;;2.30;0.55;;;21.30;99.90;;;;;;4266285;33;20122;-91
2020/12/02 13:07:24;;;;;;;2.33;0.82;;;21.30;99.90;;;;;;4265831;33;20391;-91
2020/12/02 13:10:28;;;;;;;1.60;0.60;;;21.20;99.90;;;;;;4266668;33;20097;-92
2020/12/02 13:13:18;;;;;;;1.80;1.00;;;21.20;99.90;;;;;;4265133;33;20102;-90
2020/12/02 13:15:52;;;;;;;4.15;0.88;;;21.30;99.90;;;;;;4266042;33;20053;-90
2020/12/02 13:18:36;;;;;;;4.18;1.00;;;21.50;99.90;;;;;;4264054;33;20062;-90
2020/12/02 13:21:23;;;;;;;2.05;0.73;;;20.80;99.90;;;;;;4264024;33;20054;-90
2020/12/02 13:24:11;;;;;;;1.80;0.95;;;20.70;99.90;;;;;;4266103;33;20149;-90
2020/12/02 13:26:40;;;;;;;3.05;1.15;;;20.90;99.90;;;;;;4262220;33;20117;-89
2020/12/02 13:29:36;;;;;;;3.85;1.37;;;21.60;99.90;;;;;;4262753;33;20816;-93
2020/12/02 13:32:32;;;;;;;3.67;0.85;;;21.90;99.90;;;;;;4265134;33;20432;-90
2020/12/02 13:35:02;;;;;;;4.05;1.75;;;22.30;99.90;;;;;;4257487;33;20096;-91
2020/12/02 13:37:30;;;;;;;4.72;1.25;;;22.50;99.90;;;;;;4260017;33;20066;-91
2020/12/02 13:39:58;;;;;;;3.70;3.37;;;22.60;99.90;;;;;;4270446;33;20078;-90